Time;durP1;ratioP1;P1;durP2;ratioP2;P2;SDS_P1;SDS_P2;PMS_P1;PMS_P2;Temp;Humidity;BMP_temperature;BMP_pressure;BME280_temperature;BME280_humidity;BME280_pressure;Samples;Min_cycle;Max_cycle;Signal;HPM_P1;HPM_P2
2021/12/06 00:00:14;;;;;;;25.33;13.40;;;;;;;2.98;100.00;101073.72;4918021;29;20028;-66
2021/12/06 00:02:40;;;;;;;25.73;14.00;;;;;;;2.99;100.00;101074.59;4917997;29;20060;-66
2021/12/06 00:05:07;;;;;;;25.02;14.38;;;;;;;2.98;100.00;101078.19;4917674;29;20072;-66
2021/12/06 00:07:32;;;;;;;23.67;13.18;;;;;;;2.99;100.00;101082.50;4918053;29;20040;-66
2021/12/06 00:09:58;;;;;;;26.35;14.18;;;;;;;2.98;100.00;101091.34;4918015;29;20028;-66
2021/12/06 00:12:23;;;;;;;29.00;15.43;;;;;;;2.97;100.00;101093.16;4917943;29;20136;-66
2021/12/06 00:14:49;;;;;;;26.48;14.30;;;;;;;2.99;100.00;101095.66;4900893;29;20476;-66
2021/12/06 00:17:16;;;;;;;24.90;13.60;;;;;;;2.97;100.00;101097.59;4917786;29;20153;-66
2021/12/06 00:19:42;;;;;;;24.52;13.32;;;;;;;2.98;100.00;101094.81;4917895;29;20131;-66
2021/12/06 00:22:13;;;;;;;25.25;12.90;;;;;;;2.99;100.00;101100.94;4917752;29;20028;-66
2021/12/06 00:24:39;;;;;;;24.15;14.43;;;;;;;2.93;100.00;101097.03;4917817;29;20376;-66
2021/12/06 00:27:05;;;;;;;24.75;12.80;;;;;;;2.95;100.00;101100.38;4917757;29;20032;-66
2021/12/06 00:29:31;;;;;;;24.63;12.60;;;;;;;2.89;100.00;101095.66;4917674;29;20536;-66
2021/12/06 00:31:56;;;;;;;24.10;13.38;;;;;;;2.93;100.00;101109.38;4917613;29;20032;-66
2021/12/06 00:34:24;;;;;;;24.02;13.52;;;;;;;2.91;100.00;101111.31;4917571;29;20075;-66
2021/12/06 00:36:54;;;;;;;24.33;13.45;;;;;;;2.92;100.00;101113.00;4917793;29;20068;-66
2021/12/06 00:39:21;;;;;;;22.90;12.50;;;;;;;2.92;100.00;101118.28;4917466;29;20028;-66
2021/12/06 00:41:48;;;;;;;22.27;12.77;;;;;;;2.93;100.00;101125.19;4917018;29;20051;-66
2021/12/06 00:44:13;;;;;;;22.38;11.77;;;;;;;2.89;100.00;101122.00;4917294;29;20032;-66
2021/12/06 00:46:39;;;;;;;24.95;13.52;;;;;;;2.92;100.00;101124.38;4916773;29;20047;-66
2021/12/06 00:49:06;;;;;;;26.30;13.18;;;;;;;2.91;100.00;101124.50;4917306;29;20392;-66
2021/12/06 00:51:32;;;;;;;26.55;13.85;;;;;;;2.90;100.00;101133.38;4917235;29;20069;-66
2021/12/06 00:53:58;;;;;;;29.67;15.45;;;;;;;2.90;100.00;101139.47;4917193;29;20047;-66
2021/12/06 00:56:23;;;;;;;25.08;13.63;;;;;;;2.92;100.00;101139.34;4916885;29;20117;-66
2021/12/06 00:58:48;;;;;;;25.85;13.30;;;;;;;2.92;100.00;101142.81;4916878;29;20024;-66
2021/12/06 01:01:14;;;;;;;24.27;13.00;;;;;;;2.95;100.00;101149.59;4916674;29;20091;-65
2021/12/06 01:03:41;;;;;;;39.90;15.32;;;;;;;2.95;100.00;101150.41;4916990;29;20111;-66
2021/12/06 01:06:08;;;;;;;27.35;13.23;;;;;;;2.97;100.00;101164.28;4917075;29;20472;-66
2021/12/06 01:08:33;;;;;;;25.60;15.15;;;;;;;2.98;100.00;101162.47;4917043;29;20399;-66
2021/12/06 01:10:59;;;;;;;25.67;14.65;;;;;;;2.99;100.00;101179.97;4917028;29;20036;-66
2021/12/06 01:13:26;;;;;;;62.35;17.80;;;;;;;2.98;100.00;101175.66;4916891;29;20480;-65
2021/12/06 01:15:52;;;;;;;26.27;13.85;;;;;;;2.99;100.00;101175.53;4916784;29;20068;-65
2021/12/06 01:18:19;;;;;;;25.83;14.88;;;;;;;2.99;100.00;101180.81;4916820;29;20080;-66
2021/12/06 01:20:58;;;;;;;27.05;13.98;;;;;;;2.99;100.00;101180.81;4916855;29;20423;-65
2021/12/06 01:23:29;;;;;;;24.92;13.82;;;;;;;2.97;100.00;101189.81;4916544;29;20040;-66
2021/12/06 01:26:25;;;;;;;28.85;15.80;;;;;;;2.99;100.00;101191.34;4916731;29;20020;-66
2021/12/06 01:39:19;;;;;;;25.48;13.90;;;;;;;2.92;100.00;101179.69;4916825;29;20039;-66
2021/12/06 01:41:56;;;;;;;26.33;14.88;;;;;;;2.91;100.00;101180.66;4916427;29;20083;-66
2021/12/06 01:44:32;;;;;;;24.27;13.77;;;;;;;2.92;100.00;101186.75;4916753;29;20128;-66
2021/12/06 01:47:00;;;;;;;26.92;14.85;;;;;;;2.94;100.00;101192.72;4916680;29;20060;-66
2021/12/06 01:49:29;;;;;;;27.55;15.32;;;;;;;2.96;100.00;101203.94;4916418;29;20071;-66
2021/12/06 01:51:58;;;;;;;24.73;13.23;;;;;;;2.96;100.00;101202.16;4916639;29;20107;-66
2021/12/06 01:54:24;;;;;;;29.48;16.88;;;;;;;2.97;100.00;101198.53;4916518;29;20167;-66
2021/12/06 01:56:51;;;;;;;24.80;13.75;;;;;;;2.99;100.00;101201.06;4916437;29;20495;-66
2021/12/06 01:59:19;;;;;;;25.75;12.88;;;;;;;2.98;100.00;101208.09;4919649;29;20024;-66
2021/12/06 02:01:45;;;;;;;27.10;13.95;;;;;;;2.96;100.00;101207.44;4920105;29;20357;-66
2021/12/06 02:04:11;;;;;;;28.45;14.30;;;;;;;2.95;100.00;101200.47;4920163;29;20024;-66
2021/12/06 02:06:38;;;;;;;25.30;14.82;;;;;;;2.93;100.00;101212.13;4920253;29;20377;-66
2021/12/06 02:09:09;;;;;;;26.92;13.77;;;;;;;2.91;100.00;101208.78;4903350;29;20068;-66
2021/12/06 02:11:38;;;;;;;26.30;13.93;;;;;;;2.90;100.00;101215.03;4920143;29;20028;-65
2021/12/06 02:14:31;;;;;;;28.00;13.75;;;;;;;2.86;100.00;101209.22;4920113;29;20390;-65
2021/12/06 02:19:31;;;;;;;;;;;;;;;2.84;100.00;101214.63;4920379;29;20032;-65
2021/12/06 02:21:56;;;;;;;31.85;14.93;;;;;;;2.83;100.00;101214.78;4919941;29;19937;-65
2021/12/06 02:24:22;;;;;;;26.10;14.13;;;;;;;2.84;100.00;101219.88;4919944;29;20028;-66
2021/12/06 02:26:47;;;;;;;32.10;16.73;;;;;;;2.84;100.00;101219.88;4919926;29;20028;-66
2021/12/06 02:29:13;;;;;;;26.42;15.70;;;;;;;2.82;100.00;101213.09;4919954;29;20043;-66
2021/12/06 02:31:38;;;;;;;29.23;15.32;;;;;;;2.78;100.00;101204.63;4919507;29;20016;-65
2021/12/06 02:34:05;;;;;;;25.05;14.70;;;;;;;2.88;100.00;101224.88;4919484;29;20031;-66
2021/12/06 02:36:32;;;;;;;27.48;14.88;;;;;;;2.89;100.00;101224.75;4919722;29;20028;-66
2021/12/06 02:38:58;;;;;;;28.05;15.63;;;;;;;2.90;100.00;101233.47;4919591;29;20468;-66
2021/12/06 02:41:24;;;;;;;26.50;14.88;;;;;;;2.88;100.00;101230.97;4919596;29;20056;-66
2021/12/06 02:43:52;;;;;;;28.20;16.67;;;;;;;2.85;100.00;101223.34;4919612;29;20088;-66
2021/12/06 02:46:19;;;;;;;27.88;15.88;;;;;;;2.88;100.00;101235.41;4919400;29;20036;-66
2021/12/06 02:48:44;;;;;;;26.15;13.95;;;;;;;2.87;100.00;101226.69;4919532;29;20079;-66
2021/12/06 02:51:11;;;;;;;28.35;15.40;;;;;;;2.87;100.00;101234.59;4919169;29;20560;-65
2021/12/06 02:53:37;;;;;;;29.35;14.93;;;;;;;2.87;100.00;101241.66;4919313;29;20059;-66
2021/12/06 02:56:17;;;;;;;26.05;13.93;;;;;;;2.88;100.00;101249.41;4919307;29;20051;-66
2021/12/06 03:01:30;;;;;;;31.95;14.90;;;;;;;2.89;100.00;101258.16;4919267;29;20122;-66
2021/12/06 03:03:56;;;;;;;25.58;12.90;;;;;;;2.89;100.00;101256.38;4919063;29;20024;-66
2021/12/06 03:06:21;;;;;;;27.52;15.23;;;;;;;2.89;100.00;101258.16;4919100;29;20051;-66
2021/12/06 03:08:53;;;;;;;32.28;17.35;;;;;;;2.88;100.00;101259.94;4918382;29;20107;-66
2021/12/06 03:11:23;;;;;;;27.92;14.57;;;;;;;2.89;100.00;101260.81;4919033;29;20052;-66
2021/12/06 03:13:49;;;;;;;27.70;15.73;;;;;;;2.87;100.00;101250.38;4919057;29;20079;-66
2021/12/06 03:16:15;;;;;;;27.45;15.30;;;;;;;2.90;100.00;101258.00;4918825;29;20119;-66
2021/12/06 03:18:45;;;;;;;29.42;16.55;;;;;;;2.91;100.00;101254.44;4918428;29;20060;-66
2021/12/06 03:21:12;;;;;;;28.10;17.10;;;;;;;2.91;100.00;101257.06;4918755;29;20033;-66
2021/12/06 03:23:38;;;;;;;26.80;14.20;;;;;;;2.92;100.00;101261.34;4918853;29;20036;-66
2021/12/06 03:26:04;;;;;;;30.77;15.02;;;;;;;2.93;100.00;101262.19;4918896;29;20033;-66
2021/12/06 03:28:34;;;;;;;29.60;14.23;;;;;;;2.93;100.00;101259.53;4918847;29;20032;-66
2021/12/06 03:30:59;;;;;;;26.10;14.50;;;;;;;2.92;100.00;101261.34;4918708;29;20483;-66
2021/12/06 03:33:24;;;;;;;25.42;13.70;;;;;;;2.91;100.00;101262.34;4901705;29;20039;-66
2021/12/06 03:35:50;;;;;;;26.25;15.18;;;;;;;2.90;100.00;101259.81;4918646;29;20036;-66
2021/12/06 03:38:15;;;;;;;26.85;14.30;;;;;;;2.90;100.00;101267.72;4918548;29;20028;-66
2021/12/06 03:40:41;;;;;;;27.02;14.25;;;;;;;2.89;100.00;101269.53;4918390;29;20039;-66
2021/12/06 03:43:06;;;;;;;27.40;14.65;;;;;;;2.86;100.00;101267.19;4918512;29;20365;-66
2021/12/06 03:45:35;;;;;;;28.02;14.45;;;;;;;2.84;100.00;101266.47;4918571;29;20032;-66
2021/12/06 03:48:01;;;;;;;24.77;11.10;;;;;;;2.83;100.00;101265.66;4918428;29;20024;-66
2021/12/06 03:50:26;;;;;;;26.65;14.18;;;;;;;2.78;100.00;101267.84;4918420;29;20092;-65
2021/12/06 03:52:51;;;;;;;28.35;13.60;;;;;;;2.81;100.00;101267.56;4918348;29;20083;-66
2021/12/06 03:55:17;;;;;;;30.40;15.57;;;;;;;2.80;100.00;101273.81;4918380;29;20092;-66
2021/12/06 03:57:43;;;;;;;28.77;16.58;;;;;;;2.80;100.00;101281.72;4918305;29;20111;-66
2021/12/06 04:00:09;;;;;;;25.60;13.48;;;;;;;2.80;100.00;101280.88;4918064;29;20575;-66
2021/12/06 04:02:35;;;;;;;28.42;15.05;;;;;;;2.80;100.00;101267.69;4917949;29;20032;-66
2021/12/06 04:05:00;;;;;;;29.08;14.57;;;;;;;2.79;100.00;101271.31;4917976;29;20027;-66
2021/12/06 04:07:26;;;;;;;25.92;12.55;;;;;;;2.73;100.00;101259.53;4917905;29;20028;-65
2021/12/06 04:09:51;;;;;;;24.15;13.65;;;;;;;2.77;100.00;101273.25;4918005;29;20075;-65
2021/12/06 04:12:17;;;;;;;26.73;13.38;;;;;;;2.73;100.00;101274.50;4918028;29;20051;-66
2021/12/06 04:14:44;;;;;;;23.27;12.82;;;;;;;2.71;100.00;101268.53;4918002;29;20032;-66
2021/12/06 04:17:12;;;;;;;28.05;14.38;;;;;;;2.68;100.00;101266.16;4917666;29;20679;-66
2021/12/06 04:19:38;;;;;;;28.17;15.88;;;;;;;2.67;100.00;101277.66;4917080;29;20036;-65
2021/12/06 04:22:04;;;;;;;26.27;13.35;;;;;;;2.68;100.00;101280.16;4917220;29;20137;-66
2021/12/06 04:24:30;;;;;;;29.25;16.17;;;;;;;2.67;100.00;101278.47;4917729;29;20372;-66
2021/12/06 04:26:56;;;;;;;28.17;15.48;;;;;;;2.71;100.00;101279.88;4917693;29;20039;-66
2021/12/06 04:29:22;;;;;;;28.73;15.65;;;;;;;2.71;100.00;101279.06;4917653;29;20433;-66
2021/12/06 04:31:52;;;;;;;27.75;14.93;;;;;;;2.73;100.00;101285.03;4917631;29;20148;-66
2021/12/06 04:34:17;;;;;;;27.08;13.52;;;;;;;2.69;100.00;101283.63;4917544;29;20115;-66
2021/12/06 04:36:43;;;;;;;30.52;15.38;;;;;;;2.64;100.00;101284.84;4917601;29;20147;-66
2021/12/06 04:39:12;;;;;;;25.55;13.23;;;;;;;2.59;100.00;101281.81;4917609;29;20047;-66
2021/12/06 04:41:38;;;;;;;28.52;14.43;;;;;;;2.54;100.00;101281.38;4917424;29;20031;-65
2021/12/06 04:44:05;;;;;;;29.98;14.00;;;;;;;2.41;100.00;101265.81;4917431;29;20032;-66
2021/12/06 04:46:30;;;;;;;26.67;13.88;;;;;;;2.37;100.00;101280.19;4917366;29;20047;-66
2021/12/06 04:48:56;;;;;;;33.53;14.60;;;;;;;2.31;100.00;101282.53;4917416;29;20027;-66
2021/12/06 04:51:22;;;;;;;28.73;14.40;;;;;;;2.25;100.00;101281.25;4917292;29;20032;-66
2021/12/06 04:53:48;;;;;;;26.65;12.93;;;;;;;2.21;100.00;101286.91;4917190;29;20024;-66
2021/12/06 04:56:31;;;;;;;25.88;12.85;;;;;;;2.12;100.00;101281.47;4917257;29;20389;-66
2021/12/06 04:59:02;;;;;;;26.80;11.73;;;;;;;2.04;100.00;101278.66;4917220;29;20051;-66
2021/12/06 05:01:31;;;;;;;25.10;13.82;;;;;;;1.96;100.00;101281.94;4916934;29;20036;-66
2021/12/06 05:04:01;;;;;;;26.88;12.43;;;;;;;1.86;100.00;101291.59;4917155;29;20035;-65
2021/12/06 05:06:32;;;;;;;28.27;14.15;;;;;;;1.80;100.00;101296.50;4917066;29;20024;-65
2021/12/06 05:09:05;;;;;;;27.70;13.52;;;;;;;1.74;100.00;101303.13;4916647;29;20075;-65
2021/12/06 05:11:30;;;;;;;21.92;10.65;;;;;;;1.59;100.00;101299.13;4917033;29;20024;-65
2021/12/06 05:14:00;;;;;;;24.45;13.30;;;;;;;1.56;100.00;101304.66;4916988;29;20475;-65
2021/12/06 05:16:26;;;;;;;26.77;14.75;;;;;;;1.47;100.00;101307.06;4916861;29;20492;-65
2021/12/06 05:18:51;;;;;;;29.60;15.07;;;;;;;1.44;100.00;101309.09;4916689;29;20127;-65
2021/12/06 05:21:17;;;;;;;25.80;13.25;;;;;;;1.40;100.00;101307.69;4916506;29;20054;-65
2021/12/06 05:23:42;;;;;;;28.30;13.95;;;;;;;1.26;100.00;101303.59;4916394;29;20043;-66
2021/12/06 05:26:08;;;;;;;24.48;10.88;;;;;;;1.24;100.00;101311.56;4916777;29;20068;-66
2021/12/06 05:28:40;;;;;;;27.10;15.15;;;;;;;1.17;100.00;101314.81;4916848;29;20032;-66
2021/12/06 05:31:13;;;;;;;27.88;14.15;;;;;;;1.11;100.00;101324.03;4916647;29;20029;-66
2021/12/06 05:33:41;;;;;;;25.73;13.20;;;;;;;1.08;100.00;101327.75;4916816;29;20028;-66
2021/12/06 05:36:06;;;;;;;37.13;15.73;;;;;;;1.01;100.00;101318.69;4916716;29;20032;-66
2021/12/06 05:38:32;;;;;;;24.05;13.43;;;;;;;0.96;100.00;101328.72;4916718;29;20088;-66
2021/12/06 05:40:58;;;;;;;25.25;13.60;;;;;;;0.93;100.00;101322.88;4916719;29;20066;-66
2021/12/06 05:43:24;;;;;;;28.10;16.25;;;;;;;0.88;100.00;101329.31;4916564;29;20040;-66
2021/12/06 05:45:50;;;;;;;30.27;17.20;;;;;;;0.84;100.00;101322.66;4916683;29;20456;-66
2021/12/06 05:48:17;;;;;;;32.78;17.67;;;;;;;0.87;100.00;101318.97;4916629;29;20107;-65
2021/12/06 05:50:46;;;;;;;27.48;14.98;;;;;;;0.86;100.00;101318.13;4916527;29;20032;-66
2021/12/06 05:53:11;;;;;;;36.67;16.63;;;;;;;0.80;100.00;101313.34;4916638;29;20416;-65
2021/12/06 05:55:37;;;;;;;28.15;14.52;;;;;;;0.67;100.00;101306.56;4899561;29;20036;-66
2021/12/06 05:58:04;;;;;;;30.38;15.10;;;;;;;0.65;100.00;101320.66;4916444;29;20047;-66
2021/12/06 06:00:32;;;;;;;25.65;14.00;;;;;;;0.58;100.00;101308.16;4916304;29;20100;-66
2021/12/06 06:02:59;;;;;;;32.22;16.67;;;;;;;0.56;100.00;101320.53;4899149;29;20372;-65
2021/12/06 06:05:25;;;;;;;28.52;14.45;;;;;;;0.47;100.00;101321.25;4916216;29;20052;-66
2021/12/06 06:07:50;;;;;;;28.40;13.45;;;;;;;0.42;100.00;101326.88;4916178;29;20028;-66
2021/12/06 06:10:16;;;;;;;29.02;14.32;;;;;;;0.42;100.00;101334.75;4915884;29;20055;-66
2021/12/06 06:12:42;;;;;;;28.58;16.30;;;;;;;0.44;100.00;101332.81;4916381;29;20058;-66
2021/12/06 06:15:08;;;;;;;27.50;16.00;;;;;;;0.52;100.00;101334.84;4916315;29;20035;-66
2021/12/06 06:17:40;;;;;;;32.03;14.68;;;;;;;0.60;100.00;101338.56;4916029;29;20060;-66
2021/12/06 06:20:10;;;;;;;38.20;15.75;;;;;;;0.68;100.00;101344.97;4916391;29;20471;-65
2021/12/06 06:22:36;;;;;;;66.57;19.73;;;;;;;0.76;100.00;101345.22;4916228;29;20028;-65
2021/12/06 06:25:02;;;;;;;56.75;18.60;;;;;;;0.80;100.00;101349.28;4916381;29;20072;-66
2021/12/06 06:27:28;;;;;;;70.70;19.40;;;;;;;0.83;100.00;101354.28;4916199;29;20024;-65
2021/12/06 06:29:53;;;;;;;75.72;19.83;;;;;;;0.83;100.00;101343.78;4916257;29;20476;-65
2021/12/06 06:32:18;;;;;;;80.45;20.10;;;;;;;0.83;100.00;101346.41;4916218;29;20036;-66
2021/12/06 06:34:44;;;;;;;70.07;19.42;;;;;;;0.82;100.00;101342.94;4916220;29;20063;-66
2021/12/06 06:37:10;;;;;;;65.45;18.75;;;;;;;0.82;100.00;101340.31;4916207;29;20498;-66
2021/12/06 06:39:35;;;;;;;100.38;19.77;;;;;;;0.85;100.00;101347.13;4916283;29;20547;-66
2021/12/06 06:42:01;;;;;;;85.70;23.20;;;;;;;0.83;100.00;101347.22;4916157;29;20067;-66
2021/12/06 06:44:26;;;;;;;90.20;19.80;;;;;;;0.80;100.00;101350.09;4917834;29;20107;-65
2021/12/06 06:46:53;;;;;;;46.67;18.20;;;;;;;0.83;100.00;101357.72;4919350;29;20040;-66
2021/12/06 06:49:19;;;;;;;70.93;18.48;;;;;;;0.83;100.00;101354.28;4919178;29;20048;-66
2021/12/06 06:51:48;;;;;;;44.85;17.58;;;;;;;0.83;100.00;101354.28;4919182;29;20067;-66
2021/12/06 06:54:14;;;;;;;48.72;14.70;;;;;;;0.81;100.00;101359.66;4919134;29;20138;-66
2021/12/06 06:56:40;;;;;;;53.90;15.38;;;;;;;0.83;100.00;101354.28;4919256;29;20085;-65
2021/12/06 06:59:06;;;;;;;55.88;18.60;;;;;;;0.86;100.00;101361.91;4919242;29;20469;-66
2021/12/06 07:01:32;;;;;;;46.42;13.95;;;;;;;0.87;100.00;101367.06;4919092;29;20039;-66
2021/12/06 07:03:57;;;;;;;56.03;19.02;;;;;;;0.91;100.00;101362.38;4918850;29;20028;-65
2021/12/06 07:06:26;;;;;;;66.03;16.33;;;;;;;0.93;100.00;101362.28;4919163;29;20584;-66
2021/12/06 07:08:54;;;;;;;44.85;14.07;;;;;;;0.96;100.00;101367.28;4918794;29;20040;-65
2021/12/06 07:11:20;;;;;;;62.15;18.10;;;;;;;0.97;100.00;101372.44;4919012;29;20056;-66
2021/12/06 07:13:47;;;;;;;59.80;15.70;;;;;;;1.00;100.00;101369.56;4918909;29;20067;-66
2021/12/06 07:16:14;;;;;;;45.38;15.90;;;;;;;1.05;100.00;101374.44;4918712;29;20044;-66
2021/12/06 07:18:39;;;;;;;63.58;17.10;;;;;;;1.09;100.00;101373.22;4918676;29;20500;-66
2021/12/06 07:21:05;;;;;;;38.40;17.77;;;;;;;1.12;100.00;101372.16;4918636;29;20039;-66
2021/12/06 07:23:30;;;;;;;69.78;19.67;;;;;;;1.16;100.00;101384.91;4918793;29;20036;-66
2021/12/06 07:25:56;;;;;;;34.53;16.23;;;;;;;1.17;100.00;101383.97;4918746;29;20067;-66
2021/12/06 07:28:21;;;;;;;44.72;17.73;;;;;;;1.24;100.00;101389.56;4918795;29;20040;-66
2021/12/06 07:30:47;;;;;;;34.40;13.43;;;;;;;1.26;100.00;101393.75;4927846;29;20032;-66
2021/12/06 07:33:12;;;;;;;53.22;23.17;;;;;;;1.28;100.00;101393.59;4934106;29;20487;-66
2021/12/06 07:35:38;;;;;;;44.38;21.42;;;;;;;1.30;100.00;101396.94;4934073;29;20032;-66
2021/12/06 07:38:05;;;;;;;47.58;17.58;;;;;;;1.34;100.00;101392.28;4934068;29;20032;-66
2021/12/06 07:40:31;;;;;;;35.65;18.23;;;;;;;1.38;100.00;101401.59;4934199;29;20480;-66
2021/12/06 07:42:57;;;;;;;39.67;17.27;;;;;;;1.41;100.00;101402.16;4933985;29;20027;-66
2021/12/06 07:45:22;;;;;;;49.85;19.27;;;;;;;1.46;100.00;101399.19;4933933;29;20039;-66
2021/12/06 07:47:48;;;;;;;56.15;18.65;;;;;;;1.50;100.00;101405.88;4934167;29;20710;-66
2021/12/06 07:50:16;;;;;;;42.38;18.77;;;;;;;1.55;100.00;101414.22;4934078;29;20041;-66
2021/12/06 07:52:42;;;;;;;46.28;20.17;;;;;;;1.58;100.00;101410.50;4933977;29;20499;-66
2021/12/06 07:55:12;;;;;;;86.07;21.30;;;;;;;1.59;100.00;101415.63;4933753;29;20060;-66
2021/12/06 07:57:37;;;;;;;56.90;20.33;;;;;;;1.61;100.00;101405.81;4933637;29;20036;-66
2021/12/06 08:00:09;;;;;;;60.63;19.92;;;;;;;1.63;100.00;101409.19;4933785;29;20965;-66
2021/12/06 08:02:35;;;;;;;60.97;20.27;;;;;;;1.63;100.00;101396.03;4933783;29;20064;-66
2021/12/06 08:05:29;;;;;;;51.97;20.63;;;;;;;1.63;100.00;101396.03;4932920;29;20035;-66
2021/12/06 08:07:46;;;;;;;88.63;23.48;;;;;;;1.59;100.00;101397.22;4933323;29;20158;-66
2021/12/06 08:10:11;;;;;;;71.40;24.20;;;;;;;1.55;100.00;101395.81;4933433;29;20116;-66
2021/12/06 08:12:36;;;;;;;52.10;18.80;;;;;;;1.56;100.00;101391.41;4933553;29;20356;-66
2021/12/06 08:15:03;;;;;;;69.38;20.00;;;;;;;1.58;100.00;101387.69;4933343;29;20038;-66
2021/12/06 08:17:29;;;;;;;92.95;24.52;;;;;;;1.57;100.00;101383.38;4933075;29;20504;-66
2021/12/06 08:19:54;;;;;;;78.43;25.02;;;;;;;1.59;100.00;101384.09;4932922;29;20043;-66
2021/12/06 08:22:20;;;;;;;82.13;25.33;;;;;;;1.60;100.00;101377.03;4932919;29;20090;-66
2021/12/06 08:24:45;;;;;;;80.13;22.77;;;;;;;1.63;100.00;101380.25;4931849;29;20035;-66
2021/12/06 08:27:10;;;;;;;59.45;20.92;;;;;;;1.65;100.00;101380.09;4933032;29;20040;-66
2021/12/06 08:29:36;;;;;;;87.00;24.48;;;;;;;1.68;100.00;101380.72;4933042;29;20043;-65
2021/12/06 08:32:02;;;;;;;67.05;24.17;;;;;;;1.68;100.00;101382.50;4935394;29;20024;-66
2021/12/06 08:34:27;;;;;;;96.30;27.02;;;;;;;1.66;100.00;101373.91;4936532;29;20083;-65
2021/12/06 08:36:52;;;;;;;96.78;22.70;;;;;;;1.66;100.00;101380.00;4936542;29;20035;-65
2021/12/06 08:39:18;;;;;;;82.30;26.02;;;;;;;1.66;100.00;101380.00;4936561;29;20036;-66
2021/12/06 08:41:43;;;;;;;107.43;25.77;;;;;;;1.59;100.00;101375.38;4936350;29;20032;-66
2021/12/06 08:44:09;;;;;;;69.20;22.58;;;;;;;1.68;100.00;101385.16;4936480;29;20391;-66
2021/12/06 08:46:37;;;;;;;98.47;22.70;;;;;;;1.71;100.00;101393.59;4936345;29;20047;-66
2021/12/06 08:49:05;;;;;;;47.80;18.23;;;;;;;1.73;100.00;101401.38;4936415;29;20417;-66
2021/12/06 08:51:38;;;;;;;47.08;19.75;;;;;;;1.78;100.00;101408.88;4936196;29;20027;-66
2021/12/06 08:54:05;;;;;;;63.85;21.85;;;;;;;1.81;100.00;101404.22;4936284;29;20444;-66
2021/12/06 08:56:31;;;;;;;33.10;16.98;;;;;;;1.85;100.00;101412.69;4917275;29;20051;-65
2021/12/06 08:58:57;;;;;;;48.97;18.70;;;;;;;1.91;100.00;101415.66;4914144;29;20070;-66
2021/12/06 09:01:25;;;;;;;38.15;18.90;;;;;;;1.97;100.00;101416.94;4932208;29;20082;-66
2021/12/06 09:03:50;;;;;;;55.95;20.45;;;;;;;2.00;100.00;101416.69;4932318;29;20023;-66
2021/12/06 09:06:16;;;;;;;51.38;19.48;;;;;;;2.09;100.00;101407.19;4917112;29;20438;-66
2021/12/06 09:08:42;;;;;;;43.65;18.60;;;;;;;2.18;100.00;101414.31;4931174;29;20419;-66
2021/12/06 09:11:08;;;;;;;43.90;17.70;;;;;;;2.27;100.00;101410.91;4932148;29;20034;-65
2021/12/06 09:13:34;;;;;;;51.20;19.13;;;;;;;2.33;100.00;101414.81;4931441;29;20068;-66
2021/12/06 09:16:02;;;;;;;33.35;15.35;;;;;;;2.32;100.00;101413.16;4932125;29;20447;-65
2021/12/06 09:18:30;;;;;;;29.30;16.85;;;;;;;2.33;100.00;101409.53;4931055;29;20060;-66
2021/12/06 09:20:56;;;;;;;36.45;16.58;;;;;;;2.36;100.00;101419.84;4931820;29;20030;-66
2021/12/06 09:23:22;;;;;;;46.80;19.27;;;;;;;2.41;100.00;101421.13;4931914;29;20503;-66
2021/12/06 09:25:47;;;;;;;37.50;17.70;;;;;;;2.47;100.00;101422.41;4932175;29;20036;-66
2021/12/06 09:28:15;;;;;;;31.58;18.73;;;;;;;2.49;100.00;101419.63;4931612;29;20406;-66
2021/12/06 09:30:42;;;;;;;36.20;18.52;;;;;;;2.45;100.00;101423.50;4931922;29;20040;-66
2021/12/06 09:33:11;;;;;;;38.80;19.38;;;;;;;2.38;100.00;101412.63;4931942;29;20032;-67
2021/12/06 09:35:41;;;;;;;44.97;18.42;;;;;;;2.30;100.00;101418.53;4934678;29;20050;-67
2021/12/06 09:38:08;;;;;;;44.58;20.33;;;;;;;2.28;100.00;101417.00;4935654;29;20020;-66
2021/12/06 09:40:37;;;;;;;39.20;19.65;;;;;;;2.25;100.00;101425.16;4935644;29;20122;-67
2021/12/06 09:43:05;;;;;;;47.13;23.45;;;;;;;2.13;100.00;101405.97;4935441;29;20071;-67
2021/12/06 09:45:32;;;;;;;36.95;19.48;;;;;;;2.22;100.00;101426.25;4935528;29;20027;-67
2021/12/06 09:48:00;;;;;;;40.92;20.08;;;;;;;2.24;100.00;101415.59;4935646;29;20079;-68
2021/12/06 09:50:30;;;;;;;43.80;21.17;;;;;;;2.23;100.00;101417.41;4935579;29;20039;-67
2021/12/06 09:52:58;;;;;;;45.25;18.92;;;;;;;2.34;100.00;101413.88;4935719;29;20416;-67
2021/12/06 09:55:26;;;;;;;38.17;19.42;;;;;;;2.36;100.00;101417.22;4935359;29;20383;-67
2021/12/06 09:57:52;;;;;;;35.85;18.67;;;;;;;2.36;100.00;101418.03;4935548;29;20356;-67
2021/12/06 10:00:21;;;;;;;35.67;17.52;;;;;;;2.34;100.00;101419.97;4935589;29;20042;-67
2021/12/06 10:02:46;;;;;;;40.75;21.20;;;;;;;2.35;100.00;101413.72;4935419;29;20098;-67
2021/12/06 10:05:12;;;;;;;38.00;18.58;;;;;;;2.35;100.00;101418.97;4935481;29;20570;-67
2021/12/06 10:07:37;;;;;;;40.50;18.33;;;;;;;2.32;100.00;101418.41;4935433;29;20027;-67
2021/12/06 10:10:06;;;;;;;37.75;18.30;;;;;;;2.35;100.00;101423.41;4935293;29;20056;-68
2021/12/06 10:12:31;;;;;;;40.22;20.70;;;;;;;2.31;100.00;101416.75;4935403;29;20058;-67
2021/12/06 10:15:00;;;;;;;35.42;19.73;;;;;;;2.32;100.00;101421.06;4935351;29;20451;-67
2021/12/06 10:17:26;;;;;;;36.03;20.20;;;;;;;2.26;100.00;101409.25;4935107;29;20138;-67
2021/12/06 10:19:52;;;;;;;31.30;18.10;;;;;;;2.25;100.00;101398.84;4937661;29;20136;-68
2021/12/06 10:22:18;;;;;;;32.13;17.48;;;;;;;2.24;100.00;101397.19;4938985;29;20114;-67
2021/12/06 10:24:52;;;;;;;36.67;19.27;;;;;;;2.24;100.00;101395.38;4921888;29;20114;-67
2021/12/06 10:27:19;;;;;;;31.73;18.02;;;;;;;2.29;100.00;101398.44;4938884;29;20031;-67
2021/12/06 10:29:47;;;;;;;34.50;17.35;;;;;;;2.31;100.00;101385.19;4938638;29;20383;-67
2021/12/06 10:32:16;;;;;;;34.75;17.15;;;;;;;2.33;100.00;101380.59;4938885;29;20020;-67
2021/12/06 10:34:46;;;;;;;34.08;18.35;;;;;;;2.36;100.00;101378.56;4938822;29;20174;-67
2021/12/06 10:37:36;;;;;;;28.58;14.90;;;;;;;2.36;100.00;101370.66;4938755;29;20107;-67
2021/12/06 10:40:06;;;;;;;38.00;18.60;;;;;;;2.32;100.00;101363.16;4927806;29;20051;-67
2021/12/06 10:42:37;;;;;;;28.30;14.63;;;;;;;2.40;100.00;101366.78;4938567;29;20027;-67
2021/12/06 10:45:11;;;;;;;;;;;;;;;2.47;100.00;101368.91;4938993;29;20471;-67
2021/12/06 10:47:38;;;;;;;34.88;19.13;;;;;;;2.51;100.00;101373.75;4938454;29;19919;-67
2021/12/06 10:50:22;;;;;;;30.38;16.55;;;;;;;2.55;100.00;101363.81;4938345;29;20038;-67
2021/12/06 10:52:55;;;;;;;37.20;17.77;;;;;;;2.45;100.00;101334.81;4938280;29;20497;-67
2021/12/06 10:55:24;;;;;;;32.72;15.52;;;;;;;2.59;100.00;101345.00;4938444;29;20024;-68
2021/12/06 10:57:52;;;;;;;43.72;17.65;;;;;;;2.62;100.00;101342.09;4938101;29;20024;-67
2021/12/06 11:00:51;;;;;;;31.98;15.32;;;;;;;2.67;100.00;101336.41;4938248;29;20079;-67
2021/12/06 11:03:18;;;;;;;36.53;18.98;;;;;;;2.71;100.00;101331.72;4938060;29;20110;-67
2021/12/06 11:05:44;;;;;;;36.38;17.13;;;;;;;2.70;100.00;101328.28;4938167;29;20107;-67
2021/12/06 11:08:11;;;;;;;30.20;16.75;;;;;;;2.72;100.00;101322.84;4938318;29;20032;-67
2021/12/06 11:11:03;;;;;;;30.70;14.80;;;;;;;2.72;100.00;101310.50;4937958;29;20364;-67
2021/12/06 11:13:35;;;;;;;32.97;16.60;;;;;;;2.71;100.00;101308.84;4933855;29;20484;-67
2021/12/06 11:16:12;;;;;;;33.45;14.63;;;;;;;2.74;100.00;101302.50;4937740;29;20027;-68
2021/12/06 11:18:56;;;;;;;37.97;17.13;;;;;;;2.69;100.00;101299.41;4937662;29;20399;-67
2021/12/06 11:21:35;;;;;;;30.85;15.20;;;;;;;2.68;100.00;101298.59;4937800;29;20383;-68
2021/12/06 11:24:08;;;;;;;29.75;13.40;;;;;;;2.77;100.00;101303.03;4937815;29;20106;-67
2021/12/06 11:26:36;;;;;;;32.80;15.73;;;;;;;2.75;100.00;101298.88;4937664;29;20032;-67